Time;durP1;ratioP1;P1;durP2;ratioP2;P2;SDS_P1;SDS_P2;PMS_P1;PMS_P2;Temp;Humidity;BMP_temperature;BMP_pressure;BME280_temperature;BME280_humidity;BME280_pressure;Samples;Min_cycle;Max_cycle;Signal;HPM_P1;HPM_P2
2022/09/28 00:01:25;;;;;;;7.43;3.45;;;12.30;99.90;;;12.51;80.73;99468.53;4825085;29;20053;-73
2022/09/28 00:03:56;;;;;;;4.60;2.97;;;12.30;99.90;;;12.35;80.94;99439.94;4824573;29;20481;-73
2022/09/28 00:06:27;;;;;;;6.25;3.38;;;12.20;99.90;;;12.39;80.82;99450.38;4824854;29;20068;-73
2022/09/28 00:08:56;;;;;;;3.97;3.50;;;12.20;99.90;;;12.14;81.01;99415.03;4824841;29;20046;-73
2022/09/28 00:11:26;;;;;;;5.35;3.25;;;12.20;99.90;;;12.39;80.88;99454.81;4824457;29;20053;-73
2022/09/28 00:14:01;;;;;;;3.70;3.40;;;12.20;99.90;;;12.41;80.89;99458.28;4824582;29;20469;-73
2022/09/28 00:16:32;;;;;;;5.00;3.33;;;12.20;99.90;;;12.39;80.76;99458.34;4838342;29;20065;-73
2022/09/28 00:19:01;;;;;;;6.78;3.78;;;12.10;99.90;;;12.37;80.61;99459.28;4824488;29;20046;-73
2022/09/28 00:21:33;;;;;;;4.13;2.92;;;12.10;99.90;;;12.33;80.43;99455.03;4824927;29;20137;-73
2022/09/28 00:24:13;;;;;;;4.07;3.03;;;12.00;99.90;;;12.32;80.44;99458.59;4824355;29;20065;-74
2022/09/28 00:26:46;;;;;;;4.43;3.53;;;12.00;99.90;;;12.33;80.34;99457.69;4838578;29;20106;-72
2022/09/28 00:29:23;;;;;;;3.28;2.90;;;12.10;99.90;;;12.25;80.59;99443.81;4838517;29;20145;-73
2022/09/28 00:31:56;;;;;;;3.15;2.85;;;12.00;99.90;;;12.17;80.86;99443.22;4824660;29;20046;-73
2022/09/28 00:34:24;;;;;;;5.32;3.17;;;12.00;99.90;;;12.21;80.87;99445.72;4823250;29;20501;-73
2022/09/28 00:36:52;;;;;;;4.88;3.08;;;11.90;99.90;;;12.24;80.98;99450.91;4824565;29;20046;-73
2022/09/28 00:39:20;;;;;;;3.25;2.88;;;12.00;99.90;;;12.25;80.81;99447.31;4824255;29;20076;-73
2022/09/28 00:41:49;;;;;;;5.30;3.10;;;12.00;99.90;;;12.26;80.97;99454.38;4824652;29;20054;-72
2022/09/28 00:44:43;;;;;;;3.83;3.35;;;12.00;99.90;;;12.03;81.64;99469.31;4838468;29;20058;-74
2022/09/28 00:47:38;;;;;;;3.20;2.95;;;11.80;99.90;;;12.11;81.97;99480.53;4824707;29;20050;-73
2022/09/28 00:50:15;;;;;;;2.95;2.72;;;11.90;99.90;;;11.90;82.53;99479.44;4838305;29;20062;-73
2022/09/28 00:52:48;;;;;;;4.25;3.10;;;11.70;99.90;;;11.97;82.63;99477.44;4824340;29;20055;-73
2022/09/28 00:55:23;;;;;;;5.68;3.00;;;11.70;99.90;;;12.01;83.26;99473.78;4838156;29;20054;-73
2022/09/28 00:57:57;;;;;;;5.60;2.88;;;11.70;99.90;;;12.20;83.36;99459.88;4838163;29;20065;-74
2022/09/28 01:00:27;;;;;;;3.20;2.95;;;11.90;99.90;;;12.29;83.07;99464.00;4824102;29;20065;-74
2022/09/28 01:02:56;;;;;;;3.83;3.30;;;12.00;99.90;;;12.34;82.95;99470.88;4824339;29;20477;-74
2022/09/28 01:05:25;;;;;;;5.15;3.33;;;12.10;99.90;;;12.37;82.72;99472.56;4837731;29;20065;-74
2022/09/28 01:07:56;;;;;;;5.15;3.13;;;12.10;99.90;;;12.41;82.53;99500.69;4823805;29;20043;-74
2022/09/28 01:10:25;;;;;;;6.45;3.33;;;12.20;99.90;;;12.42;82.78;99486.53;4824115;29;20054;-75
2022/09/28 01:12:55;;;;;;;3.33;3.13;;;12.20;99.90;;;12.48;82.99;99486.31;4823722;29;20059;-74
2022/09/28 01:15:27;;;;;;;5.70;3.25;;;12.20;99.90;;;12.42;83.08;99481.22;4837811;29;20055;-74
2022/09/28 01:18:10;;;;;;;6.60;3.17;;;12.20;99.90;;;12.12;83.49;99479.59;4837533;29;20145;-74
2022/09/28 01:21:04;;;;;;;3.40;2.75;;;12.00;99.90;;;12.22;83.52;99467.78;4837708;29;20154;-75
2022/09/28 01:24:25;;;;;;;3.97;2.90;;;12.00;99.90;;;12.37;83.00;99467.25;4820875;29;20233;-74
2022/09/28 01:27:06;;;;;;;3.35;2.90;;;12.00;99.90;;;12.32;82.60;99464.78;4767510;30;20063;-75
2022/09/28 01:29:51;;;;;;;3.40;3.10;;;12.10;99.90;;;12.38;81.52;99474.31;4816994;29;20071;-73
2022/09/28 01:32:32;;;;;;;4.07;3.35;;;12.10;99.90;;;12.34;81.52;99462.06;4822332;29;20054;-75
2022/09/28 01:35:06;;;;;;;4.40;2.92;;;12.10;99.90;;;12.30;81.30;99465.72;4823732;29;20056;-74
2022/09/28 01:37:43;;;;;;;4.60;2.88;;;12.10;99.90;;;12.32;81.47;99463.91;4826592;29;20494;-74
2022/09/28 01:40:14;;;;;;;6.03;3.00;;;12.10;99.90;;;12.37;81.46;99461.94;4841203;29;20493;-74
2022/09/28 01:42:47;;;;;;;3.10;2.80;;;12.10;99.90;;;12.36;81.20;99450.50;4841333;29;20082;-75
2022/09/28 01:45:23;;;;;;;3.30;2.60;;;12.20;99.90;;;12.47;81.30;99453.63;4827176;29;20050;-75
2022/09/28 01:47:54;;;;;;;7.35;3.10;;;12.20;99.90;;;12.53;81.11;99453.41;4841173;29;20062;-74
2022/09/28 01:50:25;;;;;;;3.17;2.97;;;12.30;99.90;;;12.61;81.05;99458.47;4841062;29;20058;-73
2022/09/28 01:52:59;;;;;;;3.35;2.80;;;12.30;99.90;;;12.61;80.64;99447.84;4826929;29;20515;-74
2022/09/28 01:55:32;;;;;;;4.53;2.90;;;12.40;99.90;;;12.61;80.65;99445.19;4841016;29;20137;-74
2022/09/28 01:58:11;;;;;;;4.10;3.00;;;12.40;99.90;;;12.58;80.72;99456.75;4840905;29;20050;-74
2022/09/28 02:00:45;;;;;;;3.20;2.88;;;12.40;99.90;;;12.65;80.62;99452.13;4825410;29;20051;-74
2022/09/28 02:03:20;;;;;;;3.40;2.95;;;12.40;99.90;;;12.66;80.45;99443.22;4826848;29;20103;-74
2022/09/28 02:05:59;;;;;;;4.13;2.90;;;12.40;99.90;;;12.70;80.48;99451.03;4840791;29;20047;-74
2022/09/28 02:08:33;;;;;;;4.85;2.70;;;12.40;99.90;;;12.68;80.46;99452.88;4840759;29;20073;-73
2022/09/28 02:11:09;;;;;;;3.28;3.08;;;12.40;99.90;;;12.69;80.13;99456.41;4840363;29;20102;-73
2022/09/28 02:13:43;;;;;;;3.85;3.08;;;12.50;99.90;;;12.65;80.35;99447.69;4840736;29;20055;-74
2022/09/28 02:16:19;;;;;;;6.20;3.10;;;12.40;99.90;;;12.64;80.22;99455.69;4840680;29;20117;-74
2022/09/28 02:18:50;;;;;;;5.93;3.33;;;12.40;99.90;;;12.60;80.14;99448.78;4840577;29;20098;-73
2022/09/28 02:21:26;;;;;;;5.18;2.65;;;12.40;99.90;;;12.44;80.16;99421.06;4826316;29;20054;-73
2022/09/28 02:23:59;;;;;;;3.28;2.97;;;12.40;99.90;;;12.62;80.13;99454.88;4825188;29;20141;-73
2022/09/28 02:26:32;;;;;;;4.53;3.17;;;12.40;99.90;;;12.58;80.39;99456.75;4840548;29;20451;-73
2022/09/28 02:29:02;;;;;;;3.28;3.05;;;12.30;99.90;;;12.63;80.31;99460.13;4824794;29;20065;-73
2022/09/28 02:31:31;;;;;;;3.80;3.17;;;12.40;99.90;;;12.63;80.54;99457.50;4840382;29;20592;-73
2022/09/28 02:34:00;;;;;;;3.23;2.93;;;12.40;99.90;;;12.65;80.54;99454.78;4840098;29;20115;-72
2022/09/28 02:36:30;;;;;;;4.68;2.50;;;12.40;99.90;;;12.66;80.46;99459.16;4840461;29;20327;-77
2022/09/28 02:39:00;;;;;;;5.88;2.90;;;12.40;99.90;;;12.65;80.32;99452.13;4840843;29;20054;-78
2022/09/28 02:41:42;;;;;;;4.35;2.92;;;12.40;99.90;;;12.69;80.63;99451.09;4840730;29;20047;-78
2022/09/28 02:44:30;;;;;;;3.53;3.20;;;12.40;99.90;;;12.72;80.48;99464.25;4840790;29;20074;-78
2022/09/28 02:47:05;;;;;;;4.07;2.97;;;12.40;99.90;;;12.72;80.33;99453.63;4840159;29;20050;-78
2022/09/28 02:49:44;;;;;;;3.55;3.20;;;12.50;99.90;;;12.78;80.46;99458.72;4840692;29;20082;-78
2022/09/28 02:52:32;;;;;;;3.55;2.90;;;12.50;99.90;;;12.83;80.50;99455.91;4840655;29;20145;-78
2022/09/28 02:55:20;;;;;;;4.53;3.15;;;12.60;99.90;;;12.76;80.59;99457.91;4840596;29;20057;-78
2022/09/28 02:58:11;;;;;;;4.78;3.10;;;12.50;99.90;;;12.08;80.50;99340.19;4840532;29;20050;-78
2022/09/28 03:00:47;;;;;;;3.72;2.92;;;12.50;99.90;;;12.81;80.62;99453.31;4826444;29;20129;-78
2022/09/28 03:03:22;;;;;;;4.88;3.10;;;12.50;99.90;;;12.67;80.78;99447.63;4840441;29;20051;-78
2022/09/28 03:06:00;;;;;;;3.53;3.22;;;12.60;99.90;;;12.85;80.64;99457.59;4840421;29;20141;-78
2022/09/28 03:08:39;;;;;;;5.05;3.40;;;12.60;99.90;;;12.41;80.95;99374.28;4840417;29;20497;-78
2022/09/28 03:11:16;;;;;;;4.35;3.03;;;12.60;99.90;;;12.88;80.85;99445.97;4840374;29;20061;-78
2022/09/28 03:13:48;;;;;;;6.00;3.20;;;12.60;99.90;;;12.82;80.72;99448.84;4840319;29;20145;-78
2022/09/28 03:16:20;;;;;;;5.03;3.00;;;12.50;99.90;;;12.62;80.87;99420.38;4840298;29;20054;-78
2022/09/28 03:18:50;;;;;;;4.53;3.30;;;12.50;99.90;;;12.77;80.84;99448.16;4826185;29;20370;-78
2022/09/28 03:21:18;;;;;;;6.93;3.50;;;12.50;99.90;;;12.77;80.84;99456.13;4824453;29;20079;-78
2022/09/28 03:23:47;;;;;;;6.60;3.15;;;12.50;99.90;;;12.77;80.92;99446.38;4824718;29;20502;-78
2022/09/28 03:26:18;;;;;;;3.72;3.13;;;12.50;99.90;;;12.83;80.54;99456.78;4824882;29;20400;-78
2022/09/28 03:28:47;;;;;;;4.30;2.88;;;12.50;99.90;;;12.73;80.63;99444.75;4839730;29;20050;-79
2022/09/28 03:31:23;;;;;;;3.10;2.90;;;12.50;99.90;;;12.72;80.88;99463.41;4839950;29;20141;-78
2022/09/28 03:33:52;;;;;;;7.97;3.28;;;12.50;99.90;;;12.77;81.08;99454.34;4825607;29;20062;-78
2022/09/28 03:36:20;;;;;;;3.58;3.25;;;12.50;99.90;;;12.84;80.85;99447.00;4825639;29;20042;-78
2022/09/28 03:38:52;;;;;;;5.03;3.47;;;12.50;99.90;;;12.85;80.17;99449.63;4825773;29;20058;-79
2022/09/28 03:41:20;;;;;;;3.45;2.92;;;12.50;99.90;;;12.73;80.06;99439.47;4825549;29;20077;-79
2022/09/28 03:43:48;;;;;;;5.35;3.30;;;12.50;99.90;;;12.78;80.32;99447.22;4825710;29;20054;-78
2022/09/28 03:46:17;;;;;;;7.13;2.97;;;12.40;99.90;;;12.83;80.19;99447.94;4839748;29;20050;-78
2022/09/28 03:48:51;;;;;;;3.80;2.85;;;12.50;99.90;;;12.83;80.35;99443.50;4839742;29;20042;-77
2022/09/28 03:51:19;;;;;;;7.37;3.27;;;12.50;99.90;;;12.92;80.45;99450.25;4826012;29;20051;-78
2022/09/28 03:53:47;;;;;;;5.20;3.33;;;12.60;99.90;;;12.92;80.41;99451.13;4839601;29;20449;-78
2022/09/28 03:56:16;;;;;;;5.82;3.10;;;12.60;99.90;;;12.89;80.32;99458.34;4839502;29;20609;-79
2022/09/28 03:58:45;;;;;;;8.90;3.40;;;12.60;99.90;;;12.84;80.92;99460.28;4839079;29;20046;-78
2022/09/28 04:01:15;;;;;;;7.85;3.85;;;12.60;99.90;;;12.92;80.73;99466.19;4839354;29;20058;-78
2022/09/28 04:03:47;;;;;;;6.68;3.63;;;12.60;99.90;;;12.97;80.85;99475.69;4824270;29;20077;-79
2022/09/28 04:06:18;;;;;;;7.38;3.50;;;12.70;99.90;;;12.96;81.39;99481.94;4839310;29;20051;-78
2022/09/28 04:08:46;;;;;;;4.47;3.05;;;12.70;99.90;;;12.96;81.39;99479.28;4825452;29;20076;-78
2022/09/28 04:11:14;;;;;;;5.60;3.55;;;12.70;99.90;;;12.97;81.67;99480.16;4824171;29;20472;-79
2022/09/28 04:13:43;;;;;;;5.18;3.20;;;12.70;99.90;;;12.94;81.77;99475.81;4839280;29;20110;-78
2022/09/28 04:16:14;;;;;;;6.15;3.28;;;12.70;99.90;;;12.85;81.85;99477.94;4839223;29;20054;-77
2022/09/28 04:18:48;;;;;;;5.72;3.20;;;12.70;99.90;;;12.78;81.98;99474.63;4839180;29;20058;-77
2022/09/28 04:21:37;;;;;;;5.53;3.40;;;12.60;99.90;;;12.85;82.00;99500.03;4825068;29;20061;-78
2022/09/28 04:24:13;;;;;;;3.97;3.35;;;12.60;99.90;;;12.82;82.63;99492.19;4839101;29;20136;-78
2022/09/28 04:26:41;;;;;;;6.05;3.85;;;12.60;99.90;;;12.81;82.68;99493.13;4839007;29;20414;-78
2022/09/28 04:29:17;;;;;;;4.78;3.30;;;12.60;99.90;;;12.79;82.42;99494.97;4838991;29;20099;-78
2022/09/28 04:31:55;;;;;;;6.80;3.95;;;12.60;99.90;;;12.83;82.67;99487.75;4839022;29;20054;-78
2022/09/28 04:34:32;;;;;;;4.18;3.10;;;12.60;99.90;;;12.85;82.55;99492.09;4838730;29;20093;-79
2022/09/28 04:37:06;;;;;;;6.18;3.45;;;12.60;99.90;;;12.90;82.49;99479.50;4838810;29;20111;-77
2022/09/28 04:39:35;;;;;;;4.17;3.10;;;12.60;99.90;;;12.89;82.40;99477.75;4838816;29;20141;-77
2022/09/28 04:42:04;;;;;;;3.75;2.72;;;12.60;99.90;;;12.93;82.20;99479.38;4838703;29;20473;-79
2022/09/28 04:44:32;;;;;;;4.55;3.03;;;12.70;99.90;;;12.92;82.26;99466.19;4838840;29;20047;-78
2022/09/28 04:47:06;;;;;;;4.65;3.35;;;12.70;99.90;;;12.94;81.96;99470.50;4838774;29;20039;-79
2022/09/28 04:49:56;;;;;;;5.07;3.30;;;12.70;99.90;;;12.99;81.54;99467.72;4838800;29;20050;-78
2022/09/28 04:52:37;;;;;;;6.15;3.17;;;12.70;99.90;;;12.98;81.36;99466.84;4838718;29;20050;-78
2022/09/28 04:55:09;;;;;;;4.47;3.42;;;12.70;99.90;;;12.98;81.20;99463.31;4838417;29;20054;-77
2022/09/28 04:57:37;;;;;;;4.60;3.70;;;12.70;99.90;;;12.92;81.15;99459.09;4838688;29;20062;-78
2022/09/28 05:00:08;;;;;;;3.70;2.90;;;12.70;99.90;;;12.96;80.67;99457.19;4824432;29;20691;-78
2022/09/28 05:02:38;;;;;;;3.45;2.88;;;12.70;99.90;;;12.94;80.75;99459.91;4838452;29;20586;-77
2022/09/28 05:05:25;;;;;;;7.13;3.00;;;12.70;99.90;;;12.92;80.52;99460.88;4824438;29;20062;-78
2022/09/28 05:08:29;;;;;;;5.47;3.00;;;12.70;99.90;;;12.94;80.63;99470.50;4838514;29;20050;-78
2022/09/28 05:10:59;;;;;;;5.63;3.25;;;12.70;99.90;;;12.94;80.19;99465.22;4837840;29;20489;-77
2022/09/28 05:13:30;;;;;;;3.30;3.05;;;12.70;99.90;;;12.92;79.86;99469.72;4838443;29;20058;-78
2022/09/28 05:15:59;;;;;;;3.35;3.05;;;12.60;99.90;;;12.93;79.79;99466.13;4838489;29;20051;-78
2022/09/28 05:18:36;;;;;;;4.68;2.90;;;12.70;99.90;;;12.95;79.59;99472.22;4838333;29;20507;-78
2022/09/28 05:21:11;;;;;;;3.25;2.92;;;12.70;99.90;;;12.91;79.47;99462.66;4824724;29;20053;-78
2022/09/28 05:23:46;;;;;;;3.17;2.88;;;12.70;99.90;;;12.97;79.67;99467.72;4838104;29;20053;-78
2022/09/28 05:26:15;;;;;;;3.00;2.72;;;12.70;99.90;;;12.96;79.66;99471.31;4838050;29;20066;-78
2022/09/28 05:28:44;;;;;;;3.17;2.85;;;12.70;99.90;;;13.01;79.44;99476.44;4837923;29;20085;-79
2022/09/28 05:31:35;;;;;;;3.90;3.15;;;12.70;99.90;;;12.84;79.51;99442.56;4823576;29;20505;-78
2022/09/28 05:34:10;;;;;;;3.88;2.92;;;12.70;99.90;;;13.01;79.47;99476.44;4824494;29;20410;-77
2022/09/28 05:36:39;;;;;;;3.70;2.97;;;12.80;99.90;;;12.95;79.38;99464.28;4838164;29;20066;-79
2022/09/28 05:39:09;;;;;;;4.95;2.83;;;12.70;99.90;;;12.85;79.64;99472.63;4823081;29;20049;-78
2022/09/28 05:41:38;;;;;;;4.03;3.15;;;12.60;99.90;;;12.80;79.94;99472.78;4837790;29;20078;-78
2022/09/28 05:44:06;;;;;;;3.67;3.05;;;12.50;99.90;;;12.85;79.85;99492.09;4824197;29;20055;-77
2022/09/28 05:46:36;;;;;;;3.50;3.17;;;12.60;99.90;;;12.78;80.50;99493.22;4838406;29;20080;-77
2022/09/28 05:49:04;;;;;;;4.80;3.75;;;12.60;99.90;;;12.74;81.31;99494.22;4838333;29;20466;-78
2022/09/28 05:51:33;;;;;;;7.63;3.35;;;12.50;99.90;;;12.52;81.22;99430.47;4824052;29;20047;-78
2022/09/28 05:54:01;;;;;;;4.13;3.30;;;12.50;99.90;;;12.67;80.80;99479.47;4838039;29;20095;-78
2022/09/28 05:56:37;;;;;;;5.75;3.58;;;12.50;99.90;;;12.75;80.62;99495.97;4823596;29;20394;-80
2022/09/28 05:59:07;;;;;;;3.10;2.90;;;12.50;99.90;;;12.23;80.61;99453.63;4837466;29;20057;-78
2022/09/28 06:01:37;;;;;;;3.75;3.38;;;12.20;99.90;;;12.29;81.97;99472.81;4822572;29;20046;-79
2022/09/28 06:04:08;;;;;;;5.25;3.60;;;12.00;99.90;;;12.00;83.12;99457.00;4838278;29;20446;-78
2022/09/28 06:06:37;;;;;;;5.75;3.63;;;11.80;99.90;;;12.36;82.86;99482.31;4822957;29;20054;-78
2022/09/28 06:09:06;;;;;;;4.57;3.42;;;12.00;99.90;;;12.37;83.09;99484.03;4824008;29;20078;-79
2022/09/28 06:11:44;;;;;;;6.03;3.65;;;12.10;99.90;;;12.23;83.29;99477.47;4837922;29;20213;-79
2022/09/28 06:14:24;;;;;;;5.65;3.45;;;12.00;99.90;;;12.24;84.04;99484.50;4838009;29;20553;-78
2022/09/28 06:16:53;;;;;;;4.43;3.22;;;11.90;99.90;;;12.39;83.69;99483.97;4823666;29;20254;-80
2022/09/28 06:19:22;;;;;;;5.10;3.35;;;12.10;99.90;;;12.53;83.41;99489.69;4823924;29;20049;-78
2022/09/28 06:22:06;;;;;;;5.57;3.40;;;12.30;99.90;;;12.33;83.25;99477.09;4838666;29;20054;-78
2022/09/28 06:24:43;;;;;;;4.18;3.25;;;12.20;99.90;;;12.15;83.91;99480.38;4841005;29;20054;-78
2022/09/28 06:27:12;;;;;;;6.47;3.13;;;11.90;99.90;;;12.11;84.49;99492.00;4826999;29;20042;-78
2022/09/28 06:29:41;;;;;;;3.85;3.25;;;11.90;99.90;;;12.26;85.43;99495.91;4840857;29;20112;-76
2022/09/28 06:32:11;;;;;;;5.03;3.70;;;12.00;99.90;;;12.42;85.17;99497.13;4826681;29;20057;-71
2022/09/28 06:34:40;;;;;;;4.85;3.50;;;12.10;99.90;;;12.76;85.41;99497.69;4840737;29;20054;-70
2022/09/28 06:37:09;;;;;;;4.23;3.20;;;12.40;99.90;;;13.09;84.52;99501.84;4825168;29;20102;-72
2022/09/28 06:39:37;;;;;;;3.75;3.40;;;12.80;99.90;;;13.64;83.93;99507.72;4840836;29;20412;-73
2022/09/28 06:42:06;;;;;;;5.35;3.20;;;13.30;99.90;;;14.14;82.93;99511.91;4840673;29;20050;-73
2022/09/28 06:45:06;;;;;;;6.75;4.13;;;13.80;99.90;;;14.43;80.38;99514.28;4824385;29;20152;-73
2022/09/28 06:48:05;;;;;;;5.72;3.90;;;14.20;99.90;;;14.71;79.93;99519.31;4822350;29;20050;-74
2022/09/28 06:50:41;;;;;;;5.95;3.70;;;14.50;99.90;;;15.12;79.19;99527.22;4840508;29;20556;-73
2022/09/28 06:53:26;;;;;;;6.57;3.72;;;14.80;99.90;;;15.28;77.40;99524.72;4826277;29;20469;-75
2022/09/28 06:56:01;;;;;;;5.35;4.03;;;15.00;99.90;;;15.37;76.36;99526.97;4840433;29;20103;-75
2022/09/28 06:58:30;;;;;;;7.35;3.55;;;15.10;99.90;;;15.34;75.88;99511.13;4840520;29;20470;-74
2022/09/28 07:01:01;;;;;;;3.90;3.50;;;15.10;99.90;;;15.43;75.38;99525.88;4840415;29;20554;-69
2022/09/28 07:03:35;;;;;;;4.50;3.20;;;15.20;99.90;;;15.44;75.05;99524.94;4840410;29;20050;-74
2022/09/28 07:06:47;;;;;;;5.68;3.25;;;15.20;99.90;;;15.49;74.58;99530.91;4826348;29;20058;-70
2022/09/28 07:09:34;;;;;;;5.63;3.35;;;15.20;99.90;;;15.51;74.51;99531.69;4826187;29;20417;-70
2022/09/28 07:12:12;;;;;;;7.15;3.15;;;15.20;99.90;;;15.48;74.61;99538.06;4826322;29;20141;-71
2022/09/28 07:15:04;;;;;;;3.92;3.20;;;15.20;99.90;;;15.44;74.86;99543.59;4825611;29;20055;-71
2022/09/28 07:17:35;;;;;;;4.72;3.50;;;15.20;99.90;;;15.21;75.44;99529.44;4840274;29;20081;-71
2022/09/28 07:20:23;;;;;;;4.55;2.95;;;15.10;99.90;;;15.19;76.45;99549.97;4840124;29;20050;-71
2022/09/28 07:22:54;;;;;;;5.07;3.08;;;14.90;99.90;;;15.22;77.06;99548.97;4840158;29;20408;-71
2022/09/28 07:25:24;;;;;;;4.60;3.53;;;14.90;99.90;;;15.25;77.42;99541.72;4840103;29;20050;-75
2022/09/28 07:28:08;;;;;;;9.18;4.03;;;14.90;99.90;;;15.22;78.50;99540.97;4840081;29;20058;-76
2022/09/28 07:31:03;;;;;;;4.78;3.20;;;15.00;99.90;;;15.33;78.53;99547.56;4824847;29;20438;-74
2022/09/28 07:33:50;;;;;;;10.40;3.83;;;15.00;99.90;;;15.48;78.91;99542.50;4838840;29;20062;-75
2022/09/28 07:36:28;;;;;;;5.10;2.83;;;15.20;99.90;;;15.72;78.82;99547.56;4839649;29;20054;-74
2022/09/28 07:38:57;;;;;;;4.15;2.70;;;15.40;99.90;;;15.94;77.77;99552.78;4839589;29;20058;-74
2022/09/28 07:41:31;;;;;;;3.85;2.75;;;15.70;99.90;;;16.05;76.44;99558.47;4840053;29;20054;-75
2022/09/28 07:44:05;;;;;;;7.35;3.60;;;15.80;99.90;;;16.02;75.31;99566.63;4839753;29;20055;-75
2022/09/28 07:46:36;;;;;;;4.72;2.67;;;15.80;99.90;;;15.98;74.68;99562.38;4839741;29;20052;-75
2022/09/28 07:49:11;;;;;;;4.20;3.17;;;15.80;99.90;;;15.86;74.16;99557.59;4839725;29;20127;-75
2022/09/28 07:51:55;;;;;;;3.15;2.83;;;15.60;99.90;;;15.77;74.06;99558.03;4839679;29;20137;-75
2022/09/28 07:54:38;;;;;;;4.68;2.72;;;15.60;99.90;;;15.82;73.93;99570.22;4839623;29;20639;-75
2022/09/28 07:57:33;;;;;;;5.30;2.75;;;15.60;99.90;;;15.29;74.35;99489.19;4839629;29;20050;-74
2022/09/28 08:00:16;;;;;;;3.55;2.38;;;15.50;99.90;;;15.87;74.95;99578.00;4824378;29;20061;-75
2022/09/28 08:02:47;;;;;;;4.63;3.28;;;15.60;99.90;;;15.86;75.45;99578.94;4839335;29;20080;-75
2022/09/28 08:05:25;;;;;;;3.40;2.83;;;15.60;99.90;;;15.95;74.89;99581.19;4839425;29;20058;-74
2022/09/28 08:07:56;;;;;;;4.20;2.92;;;15.60;99.90;;;15.80;73.77;99574.75;4839479;29;20058;-75
2022/09/28 08:10:27;;;;;;;4.35;3.00;;;15.60;99.90;;;15.85;73.88;99579.88;4824186;29;20571;-74
2022/09/28 08:13:15;;;;;;;3.95;3.35;;;15.60;99.90;;;15.84;73.25;99580.81;4825174;29;20065;-74
2022/09/28 08:16:00;;;;;;;2.83;2.60;;;15.60;99.90;;;15.54;73.43;99556.44;4839205;29;20065;-74
2022/09/28 08:18:38;;;;;;;4.82;3.22;;;15.50;99.90;;;15.82;73.69;99583.53;4838960;29;20054;-75
2022/09/28 08:23:56;;;;;;;3.13;2.50;;;15.40;99.90;;;15.83;74.99;99585.25;4823946;29;20081;-71
2022/09/28 08:26:25;;;;;;;3.13;2.78;;;15.50;99.90;;;16.14;74.99;99595.38;4825158;29;20107;-81
2022/09/28 08:28:53;;;;;;;3.42;3.20;;;15.80;99.90;;;16.33;73.76;99601.56;4825228;29;20443;-64
2022/09/28 08:31:42;;;;;;;4.60;2.63;;;16.10;99.90;;;16.72;73.11;99599.66;4823718;29;20483;-64
2022/09/28 08:34:21;;;;;;;3.15;2.50;;;16.40;99.90;;;17.14;73.52;99612.66;4838493;29;20054;-64
2022/09/28 08:37:09;;;;;;;4.75;2.30;;;16.90;99.90;;;17.37;71.47;99608.78;4824835;29;20053;-65
2022/09/28 08:39:56;;;;;;;3.38;2.70;;;17.10;99.90;;;17.38;70.14;99614.03;4824627;29;20519;-63
2022/09/28 08:42:50;;;;;;;2.92;2.72;;;17.20;99.90;;;17.32;69.45;99614.38;4824729;29;20050;-63
2022/09/28 08:45:33;;;;;;;2.92;2.67;;;17.20;99.90;;;17.23;69.77;99619.34;4838748;29;20058;-63
2022/09/28 08:51:23;;;;;;;2.72;2.53;;;16.90;99.90;;;16.70;69.10;99573.97;4821622;29;20142;-63
2022/09/28 08:54:34;;;;;;;2.80;2.60;;;16.70;99.90;;;16.90;68.59;99605.88;4827714;29;20050;-63
2022/09/28 08:57:11;;;;;;;5.82;2.70;;;16.60;99.90;;;16.88;68.97;99611.28;4823583;29;20046;-63
2022/09/28 08:59:50;;;;;;;4.10;2.97;;;16.60;99.90;;;16.96;69.45;99598.41;4823531;29;20111;-63
2022/09/28 09:02:30;;;;;;;3.88;2.70;;;16.70;99.90;;;17.07;68.95;99613.91;4838564;29;20042;-63
2022/09/28 09:05:13;;;;;;;3.13;2.85;;;16.80;99.90;;;17.33;68.84;99625.91;4838364;29;20062;-63
2022/09/28 09:08:20;;;;;;;7.22;2.90;;;17.00;99.90;;;17.76;69.56;99625.44;4838379;29;20046;-63
2022/09/28 09:10:53;;;;;;;3.60;3.20;;;17.40;99.90;;;18.17;69.61;99634.78;4838578;29;20413;-63
2022/09/28 09:14:04;;;;;;;5.13;3.08;;;17.90;99.90;;;18.60;68.05;99634.09;4838379;29;20058;-63
2022/09/28 09:16:46;;;;;;;3.55;3.13;;;18.30;99.90;;;18.95;66.21;99636.59;4838329;29;20457;-63
2022/09/28 09:19:49;;;;;;;4.10;3.38;;;18.70;99.90;;;19.16;64.76;99648.75;4823149;29;20058;-63
2022/09/28 09:22:39;;;;;;;5.60;3.17;;;19.00;99.90;;;19.40;63.85;99636.56;4838231;29;20524;-66
2022/09/28 09:25:19;;;;;;;7.97;3.15;;;19.20;99.90;;;19.73;64.08;99648.81;4838256;29;20065;-69
2022/09/28 09:28:19;;;;;;;4.88;3.08;;;19.40;99.90;;;19.90;61.83;99637.03;4838218;29;20089;-64
2022/09/28 09:30:59;;;;;;;3.58;2.83;;;19.70;99.90;;;19.60;60.81;99637.13;4838255;29;20058;-66
2022/09/28 09:33:53;;;;;;;5.90;3.10;;;19.60;99.90;;;19.72;61.68;99644.38;4822944;29;20058;-65
2022/09/28 09:37:04;;;;;;;4.30;2.83;;;19.50;99.90;;;19.62;61.49;99651.31;4823659;29;20421;-66
2022/09/28 09:40:06;;;;;;;4.70;3.10;;;19.40;99.90;;;19.40;61.60;99648.16;4824282;29;20054;-66
2022/09/28 09:43:07;;;;;;;3.95;2.50;;;19.20;99.90;;;19.18;62.46;99650.34;4824094;29;20061;-67
2022/09/28 09:46:03;;;;;;;8.00;3.22;;;19.00;99.90;;;19.12;63.56;99653.41;4824212;29;20469;-66
2022/09/28 09:48:56;;;;;;;2.50;2.30;;;18.80;99.90;;;18.98;62.96;99660.53;4824221;29;20054;-66
2022/09/28 09:51:37;;;;;;;3.25;2.55;;;18.70;99.90;;;18.87;62.08;99642.41;4838119;29;20137;-68
2022/09/28 09:54:16;;;;;;;3.08;2.33;;;18.60;99.90;;;18.81;62.05;99646.28;4824072;29;20133;-68
2022/09/28 09:56:53;;;;;;;3.10;2.60;;;18.50;99.90;;;18.99;64.19;99646.19;4838502;29;20443;-68
2022/09/28 09:59:45;;;;;;;2.80;2.60;;;18.60;99.90;;;19.21;63.42;99650.19;4841652;29;20083;-67
2022/09/28 10:02:25;;;;;;;;;;;18.90;99.90;;;19.33;63.61;99643.25;4841927;29;20049;-67
2022/09/28 10:05:16;;;;;;;7.37;3.33;;;19.10;99.90;;;19.62;64.41;99640.56;4826161;29;19925;-66
2022/09/28 10:07:53;;;;;;;4.20;2.95;;;19.30;99.90;;;19.69;62.41;99641.91;4841749;29;20058;-66
2022/09/28 10:10:28;;;;;;;5.95;3.40;;;19.50;99.90;;;19.73;60.97;99648.81;4841492;29;20054;-66
2022/09/28 10:13:10;;;;;;;6.03;3.33;;;19.50;99.90;;;19.82;61.83;99628.63;4841373;29;20050;-66
2022/09/28 10:15:41;;;;;;;4.25;2.88;;;19.70;99.90;;;19.57;62.18;99594.34;4841282;29;20113;-66
2022/09/28 10:18:21;;;;;;;4.85;2.90;;;19.70;99.90;;;19.98;62.18;99648.16;4825952;29;20497;-66
2022/09/28 10:21:13;;;;;;;4.18;3.35;;;19.80;99.90;;;19.96;60.51;99641.16;4826893;29;20055;-66
2022/09/28 10:24:02;;;;;;;3.83;2.97;;;19.80;99.90;;;19.86;60.05;99629.28;4826739;29;20116;-66
2022/09/28 10:26:35;;;;;;;3.58;2.70;;;19.70;99.90;;;19.63;59.82;99615.44;4840991;29;20050;-66
2022/09/28 10:29:11;;;;;;;4.05;2.40;;;19.60;99.90;;;19.51;60.00;99636.81;4825811;29;20134;-65
2022/09/28 10:31:45;;;;;;;3.08;2.50;;;19.30;99.90;;;19.22;60.20;99637.66;4826744;29;20107;-64
2022/09/28 10:34:35;;;;;;;6.25;2.33;;;19.00;99.90;;;19.23;60.75;99628.66;4840896;29;20127;-64
2022/09/28 10:37:11;;;;;;;5.00;2.78;;;18.90;99.90;;;19.18;61.24;99636.09;4841020;29;20144;-64
2022/09/28 10:40:00;;;;;;;6.13;2.80;;;18.90;99.90;;;19.17;61.36;99635.22;4840822;29;20054;-64
2022/09/28 10:42:35;;;;;;;6.93;3.28;;;18.80;99.90;;;19.03;61.83;99648.56;4840894;29;20062;-66
2022/09/28 10:45:20;;;;;;;3.40;3.08;;;18.80;99.90;;;18.53;62.07;99650.63;4840819;29;20047;-67
2022/09/28 10:47:50;;;;;;;5.40;3.25;;;18.40;99.90;;;18.65;64.38;99648.13;4826760;29;20054;-66
2022/09/28 10:50:22;;;;;;;4.55;2.38;;;18.40;99.90;;;18.78;64.36;99643.78;4840769;29;20054;-66
2022/09/28 10:53:14;;;;;;;3.47;2.50;;;18.50;99.90;;;19.25;64.06;99637.47;4840767;29;20152;-65
2022/09/28 10:56:21;;;;;;;3.10;2.80;;;18.90;99.90;;;19.69;62.40;99651.78;4825076;29;20090;-66
2022/09/28 10:58:56;;;;;;;3.75;2.70;;;19.40;99.90;;;19.85;61.93;99632.91;4840472;29;20055;-63
2022/09/28 11:01:44;;;;;;;5.00;2.72;;;19.80;99.90;;;20.28;60.08;99654.34;4840470;29;20050;-64
2022/09/28 11:04:22;;;;;;;3.78;2.50;;;20.10;99.90;;;20.35;58.17;99649.41;4824941;29;20055;-64
2022/09/28 11:06:51;;;;;;;3.80;2.40;;;20.10;99.90;;;20.51;57.73;99642.97;4826426;29;20084;-63
2022/09/28 11:09:27;;;;;;;2.92;2.72;;;20.30;99.90;;;20.58;56.60;99667.59;4839345;29;20099;-63